sensor_id;sensor_type;location;lat;lon;timestamp;P1;durP1;ratioP1;P2;durP2;ratioP2
29730;SDS011;16639;51.488;0.152;2023-05-07T00:00:22;24.50;;;13.38;;
29730;SDS011;16639;51.488;0.152;2023-05-07T00:02:51;21.58;;;11.48;;
29730;SDS011;16639;51.488;0.152;2023-05-07T00:05:18;16.60;;;10.27;;
29730;SDS011;16639;51.488;0.152;2023-05-07T00:07:46;17.92;;;10.82;;
29730;SDS011;16639;51.488;0.152;2023-05-07T00:10:14;21.80;;;11.93;;
29730;SDS011;16639;51.488;0.152;2023-05-07T00:12:42;17.67;;;9.68;;
29730;SDS011;16639;51.488;0.152;2023-05-07T00:15:09;15.40;;;8.52;;
29730;SDS011;16639;51.488;0.152;2023-05-07T00:17:38;16.27;;;9.57;;
29730;SDS011;16639;51.488;0.152;2023-05-07T00:20:06;16.55;;;8.50;;
29730;SDS011;16639;51.488;0.152;2023-05-07T00:22:34;15.82;;;8.38;;
29730;SDS011;16639;51.488;0.152;2023-05-07T00:25:02;17.58;;;8.90;;
29730;SDS011;16639;51.488;0.152;2023-05-07T00:27:29;11.38;;;7.35;;
29730;SDS011;16639;51.488;0.152;2023-05-07T00:29:57;13.75;;;8.43;;
29730;SDS011;16639;51.488;0.152;2023-05-07T00:32:25;12.80;;;7.88;;
29730;SDS011;16639;51.488;0.152;2023-05-07T00:34:52;14.95;;;7.82;;
29730;SDS011;16639;51.488;0.152;2023-05-07T00:37:19;14.90;;;8.10;;
29730;SDS011;16639;51.488;0.152;2023-05-07T00:39:47;14.73;;;7.88;;
29730;SDS011;16639;51.488;0.152;2023-05-07T00:42:14;14.82;;;8.02;;
29730;SDS011;16639;51.488;0.152;2023-05-07T00:44:42;11.75;;;7.10;;
29730;SDS011;16639;51.488;0.152;2023-05-07T00:47:10;18.10;;;8.18;;
29730;SDS011;16639;51.488;0.152;2023-05-07T00:49:39;14.63;;;8.65;;
29730;SDS011;16639;51.488;0.152;2023-05-07T00:52:10;12.50;;;8.02;;
29730;SDS011;16639;51.488;0.152;2023-05-07T00:54:40;17.45;;;8.10;;
29730;SDS011;16639;51.488;0.152;2023-05-07T00:57:09;10.75;;;7.85;;
29730;SDS011;16639;51.488;0.152;2023-05-07T00:59:38;13.38;;;9.02;;
29730;SDS011;16639;51.488;0.152;2023-05-07T01:02:07;16.17;;;9.65;;
29730;SDS011;16639;51.488;0.152;2023-05-07T01:04:34;14.65;;;8.05;;
29730;SDS011;16639;51.488;0.152;2023-05-07T01:07:03;11.50;;;8.32;;
29730;SDS011;16639;51.488;0.152;2023-05-07T01:09:32;12.98;;;8.90;;
29730;SDS011;16639;51.488;0.152;2023-05-07T01:12:02;14.10;;;8.18;;
29730;SDS011;16639;51.488;0.152;2023-05-07T01:14:30;13.55;;;8.23;;
29730;SDS011;16639;51.488;0.152;2023-05-07T01:16:59;9.18;;;7.00;;
29730;SDS011;16639;51.488;0.152;2023-05-07T01:19:28;10.38;;;6.55;;
29730;SDS011;16639;51.488;0.152;2023-05-07T01:22:00;15.13;;;5.95;;
29730;SDS011;16639;51.488;0.152;2023-05-07T01:24:34;11.27;;;6.63;;
29730;SDS011;16639;51.488;0.152;2023-05-07T01:27:03;6.38;;;5.50;;
29730;SDS011;16639;51.488;0.152;2023-05-07T01:29:31;8.57;;;5.68;;
29730;SDS011;16639;51.488;0.152;2023-05-07T01:31:59;9.48;;;5.78;;
29730;SDS011;16639;51.488;0.152;2023-05-07T01:34:28;6.45;;;5.20;;
29730;SDS011;16639;51.488;0.152;2023-05-07T01:36:59;8.00;;;5.72;;
29730;SDS011;16639;51.488;0.152;2023-05-07T01:39:28;9.63;;;5.57;;
29730;SDS011;16639;51.488;0.152;2023-05-07T01:41:56;9.38;;;6.78;;
29730;SDS011;16639;51.488;0.152;2023-05-07T01:44:25;7.18;;;5.97;;
29730;SDS011;16639;51.488;0.152;2023-05-07T01:46:53;14.93;;;6.75;;
29730;SDS011;16639;51.488;0.152;2023-05-07T01:49:21;10.00;;;5.95;;
29730;SDS011;16639;51.488;0.152;2023-05-07T01:51:49;8.27;;;6.18;;
29730;SDS011;16639;51.488;0.152;2023-05-07T01:54:17;10.23;;;5.93;;
29730;SDS011;16639;51.488;0.152;2023-05-07T01:56:45;8.88;;;6.45;;
29730;SDS011;16639;51.488;0.152;2023-05-07T01:59:14;7.63;;;6.22;;
29730;SDS011;16639;51.488;0.152;2023-05-07T02:01:42;8.98;;;6.20;;
29730;SDS011;16639;51.488;0.152;2023-05-07T02:04:09;8.93;;;6.63;;
29730;SDS011;16639;51.488;0.152;2023-05-07T02:06:37;8.85;;;7.00;;
29730;SDS011;16639;51.488;0.152;2023-05-07T02:09:04;8.07;;;6.65;;
29730;SDS011;16639;51.488;0.152;2023-05-07T02:11:32;10.27;;;6.53;;
29730;SDS011;16639;51.488;0.152;2023-05-07T02:13:59;9.85;;;6.85;;
29730;SDS011;16639;51.488;0.152;2023-05-07T02:16:27;11.20;;;6.15;;
29730;SDS011;16639;51.488;0.152;2023-05-07T02:18:54;7.82;;;6.03;;
29730;SDS011;16639;51.488;0.152;2023-05-07T02:21:22;7.55;;;5.70;;
29730;SDS011;16639;51.488;0.152;2023-05-07T02:23:49;8.00;;;6.20;;
29730;SDS011;16639;51.488;0.152;2023-05-07T02:26:17;8.80;;;5.88;;
29730;SDS011;16639;51.488;0.152;2023-05-07T02:28:45;11.38;;;6.35;;
29730;SDS011;16639;51.488;0.152;2023-05-07T02:31:12;7.35;;;6.05;;
29730;SDS011;16639;51.488;0.152;2023-05-07T02:33:40;10.50;;;6.53;;
29730;SDS011;16639;51.488;0.152;2023-05-07T02:36:08;7.35;;;6.03;;
29730;SDS011;16639;51.488;0.152;2023-05-07T02:38:36;8.23;;;6.00;;
29730;SDS011;16639;51.488;0.152;2023-05-07T02:41:04;8.35;;;6.57;;
29730;SDS011;16639;51.488;0.152;2023-05-07T02:43:31;8.23;;;6.45;;
29730;SDS011;16639;51.488;0.152;2023-05-07T02:46:06;8.93;;;6.75;;
29730;SDS011;16639;51.488;0.152;2023-05-07T02:48:34;6.47;;;5.60;;
29730;SDS011;16639;51.488;0.152;2023-05-07T02:51:02;10.60;;;7.60;;
29730;SDS011;16639;51.488;0.152;2023-05-07T02:53:30;10.57;;;6.43;;
29730;SDS011;16639;51.488;0.152;2023-05-07T02:55:58;9.23;;;6.50;;
29730;SDS011;16639;51.488;0.152;2023-05-07T02:58:27;14.45;;;7.47;;
29730;SDS011;16639;51.488;0.152;2023-05-07T03:00:54;8.18;;;6.32;;
29730;SDS011;16639;51.488;0.152;2023-05-07T03:03:22;12.90;;;8.07;;
29730;SDS011;16639;51.488;0.152;2023-05-07T03:05:49;12.60;;;9.32;;
29730;SDS011;16639;51.488;0.152;2023-05-07T03:08:17;10.25;;;6.70;;
29730;SDS011;16639;51.488;0.152;2023-05-07T03:10:44;12.80;;;8.25;;
29730;SDS011;16639;51.488;0.152;2023-05-07T03:13:12;12.90;;;9.23;;
29730;SDS011;16639;51.488;0.152;2023-05-07T03:15:39;11.32;;;7.70;;
29730;SDS011;16639;51.488;0.152;2023-05-07T03:18:07;11.73;;;9.48;;
29730;SDS011;16639;51.488;0.152;2023-05-07T03:20:34;13.85;;;8.52;;
29730;SDS011;16639;51.488;0.152;2023-05-07T03:23:03;12.40;;;9.27;;
29730;SDS011;16639;51.488;0.152;2023-05-07T03:25:31;12.27;;;9.15;;
29730;SDS011;16639;51.488;0.152;2023-05-07T03:27:59;13.48;;;10.00;;
29730;SDS011;16639;51.488;0.152;2023-05-07T03:30:26;18.65;;;10.80;;
29730;SDS011;16639;51.488;0.152;2023-05-07T03:32:54;14.73;;;10.40;;
29730;SDS011;16639;51.488;0.152;2023-05-07T03:35:21;15.80;;;11.80;;
29730;SDS011;16639;51.488;0.152;2023-05-07T03:37:49;16.55;;;12.25;;
29730;SDS011;16639;51.488;0.152;2023-05-07T03:40:17;19.92;;;11.38;;
29730;SDS011;16639;51.488;0.152;2023-05-07T03:42:44;16.10;;;10.77;;
29730;SDS011;16639;51.488;0.152;2023-05-07T03:45:12;14.77;;;10.88;;
29730;SDS011;16639;51.488;0.152;2023-05-07T03:47:39;15.20;;;11.13;;
29730;SDS011;16639;51.488;0.152;2023-05-07T03:50:07;21.00;;;12.30;;
29730;SDS011;16639;51.488;0.152;2023-05-07T03:52:35;17.75;;;11.90;;
29730;SDS011;16639;51.488;0.152;2023-05-07T03:55:03;17.60;;;12.02;;
29730;SDS011;16639;51.488;0.152;2023-05-07T03:57:31;17.67;;;11.30;;
29730;SDS011;16639;51.488;0.152;2023-05-07T03:59:58;21.40;;;12.32;;
29730;SDS011;16639;51.488;0.152;2023-05-07T04:02:25;19.80;;;11.85;;
29730;SDS011;16639;51.488;0.152;2023-05-07T04:04:53;16.35;;;10.93;;
29730;SDS011;16639;51.488;0.152;2023-05-07T04:07:21;16.33;;;11.48;;
29730;SDS011;16639;51.488;0.152;2023-05-07T04:09:49;19.67;;;12.50;;
29730;SDS011;16639;51.488;0.152;2023-05-07T04:12:16;16.48;;;11.73;;
29730;SDS011;16639;51.488;0.152;2023-05-07T04:14:44;16.38;;;11.75;;
29730;SDS011;16639;51.488;0.152;2023-05-07T04:17:11;20.75;;;11.68;;
29730;SDS011;16639;51.488;0.152;2023-05-07T04:19:39;18.42;;;12.35;;
29730;SDS011;16639;51.488;0.152;2023-05-07T04:22:06;19.75;;;12.52;;
29730;SDS011;16639;51.488;0.152;2023-05-07T04:24:33;18.70;;;13.25;;
29730;SDS011;16639;51.488;0.152;2023-05-07T04:27:01;18.80;;;11.77;;
29730;SDS011;16639;51.488;0.152;2023-05-07T04:29:28;15.30;;;11.38;;
29730;SDS011;16639;51.488;0.152;2023-05-07T04:31:56;17.27;;;10.95;;
29730;SDS011;16639;51.488;0.152;2023-05-07T04:34:25;16.02;;;10.93;;
29730;SDS011;16639;51.488;0.152;2023-05-07T04:36:52;17.52;;;11.10;;
29730;SDS011;16639;51.488;0.152;2023-05-07T04:39:20;18.70;;;12.82;;
29730;SDS011;16639;51.488;0.152;2023-05-07T04:41:47;17.35;;;12.73;;
29730;SDS011;16639;51.488;0.152;2023-05-07T04:44:15;18.42;;;12.25;;
29730;SDS011;16639;51.488;0.152;2023-05-07T04:46:43;16.67;;;11.68;;
29730;SDS011;16639;51.488;0.152;2023-05-07T04:49:10;18.67;;;12.95;;
29730;SDS011;16639;51.488;0.152;2023-05-07T04:51:38;20.75;;;12.50;;
29730;SDS011;16639;51.488;0.152;2023-05-07T04:54:05;17.25;;;12.32;;
29730;SDS011;16639;51.488;0.152;2023-05-07T04:56:33;21.65;;;11.82;;
29730;SDS011;16639;51.488;0.152;2023-05-07T04:59:01;15.55;;;10.75;;
29730;SDS011;16639;51.488;0.152;2023-05-07T05:01:28;21.75;;;12.10;;
29730;SDS011;16639;51.488;0.152;2023-05-07T05:03:56;15.65;;;10.98;;
29730;SDS011;16639;51.488;0.152;2023-05-07T05:06:24;18.70;;;12.95;;
29730;SDS011;16639;51.488;0.152;2023-05-07T05:08:51;17.95;;;12.25;;
29730;SDS011;16639;51.488;0.152;2023-05-07T05:11:18;19.58;;;12.82;;
29730;SDS011;16639;51.488;0.152;2023-05-07T05:13:46;21.88;;;13.90;;
29730;SDS011;16639;51.488;0.152;2023-05-07T05:16:15;21.83;;;14.57;;
29730;SDS011;16639;51.488;0.152;2023-05-07T05:18:43;23.88;;;15.10;;
29730;SDS011;16639;51.488;0.152;2023-05-07T05:21:10;22.38;;;13.05;;
29730;SDS011;16639;51.488;0.152;2023-05-07T05:23:38;20.10;;;12.77;;
29730;SDS011;16639;51.488;0.152;2023-05-07T05:26:05;19.05;;;12.68;;
29730;SDS011;16639;51.488;0.152;2023-05-07T05:28:33;24.70;;;15.40;;
29730;SDS011;16639;51.488;0.152;2023-05-07T05:31:00;19.92;;;14.45;;
29730;SDS011;16639;51.488;0.152;2023-05-07T05:33:28;19.40;;;12.60;;
29730;SDS011;16639;51.488;0.152;2023-05-07T05:35:55;26.63;;;15.55;;
29730;SDS011;16639;51.488;0.152;2023-05-07T05:38:23;23.83;;;16.15;;
29730;SDS011;16639;51.488;0.152;2023-05-07T05:40:50;21.98;;;12.07;;
29730;SDS011;16639;51.488;0.152;2023-05-07T05:43:19;20.27;;;13.38;;
29730;SDS011;16639;51.488;0.152;2023-05-07T05:45:46;22.40;;;13.57;;
29730;SDS011;16639;51.488;0.152;2023-05-07T05:48:13;22.85;;;14.23;;
29730;SDS011;16639;51.488;0.152;2023-05-07T05:50:41;18.42;;;12.55;;
29730;SDS011;16639;51.488;0.152;2023-05-07T05:53:09;19.60;;;12.90;;
29730;SDS011;16639;51.488;0.152;2023-05-07T05:55:36;20.35;;;12.95;;
29730;SDS011;16639;51.488;0.152;2023-05-07T05:58:04;18.08;;;11.30;;
29730;SDS011;16639;51.488;0.152;2023-05-07T06:00:31;20.27;;;13.18;;
29730;SDS011;16639;51.488;0.152;2023-05-07T06:02:59;20.83;;;11.93;;
29730;SDS011;16639;51.488;0.152;2023-05-07T06:05:26;23.30;;;13.52;;
29730;SDS011;16639;51.488;0.152;2023-05-07T06:07:54;20.33;;;12.73;;
29730;SDS011;16639;51.488;0.152;2023-05-07T06:10:22;19.30;;;11.93;;
29730;SDS011;16639;51.488;0.152;2023-05-07T06:12:50;20.88;;;12.02;;
29730;SDS011;16639;51.488;0.152;2023-05-07T06:15:18;21.98;;;12.52;;
29730;SDS011;16639;51.488;0.152;2023-05-07T06:17:45;22.35;;;12.00;;
29730;SDS011;16639;51.488;0.152;2023-05-07T06:20:13;20.02;;;11.98;;
29730;SDS011;16639;51.488;0.152;2023-05-07T06:22:40;19.70;;;11.82;;
29730;SDS011;16639;51.488;0.152;2023-05-07T06:25:08;18.95;;;11.77;;
29730;SDS011;16639;51.488;0.152;2023-05-07T06:27:35;17.52;;;11.02;;
29730;SDS011;16639;51.488;0.152;2023-05-07T06:30:03;19.98;;;11.93;;
29730;SDS011;16639;51.488;0.152;2023-05-07T06:32:31;19.88;;;11.93;;
29730;SDS011;16639;51.488;0.152;2023-05-07T06:34:59;22.33;;;12.98;;
29730;SDS011;16639;51.488;0.152;2023-05-07T06:37:26;26.10;;;12.05;;
29730;SDS011;16639;51.488;0.152;2023-05-07T06:39:54;21.73;;;12.98;;
29730;SDS011;16639;51.488;0.152;2023-05-07T06:42:24;22.20;;;12.27;;
29730;SDS011;16639;51.488;0.152;2023-05-07T06:44:53;27.42;;;13.95;;
29730;SDS011;16639;51.488;0.152;2023-05-07T06:47:23;21.20;;;12.70;;
29730;SDS011;16639;51.488;0.152;2023-05-07T06:49:51;17.02;;;11.50;;
29730;SDS011;16639;51.488;0.152;2023-05-07T06:52:18;19.40;;;13.23;;
29730;SDS011;16639;51.488;0.152;2023-05-07T06:54:46;17.65;;;12.00;;
29730;SDS011;16639;51.488;0.152;2023-05-07T06:57:13;21.15;;;13.85;;
29730;SDS011;16639;51.488;0.152;2023-05-07T06:59:40;16.95;;;12.27;;
29730;SDS011;16639;51.488;0.152;2023-05-07T07:02:08;20.92;;;12.23;;
29730;SDS011;16639;51.488;0.152;2023-05-07T07:04:35;21.30;;;12.77;;
29730;SDS011;16639;51.488;0.152;2023-05-07T07:07:03;17.98;;;11.57;;
29730;SDS011;16639;51.488;0.152;2023-05-07T07:09:30;30.52;;;19.60;;
29730;SDS011;16639;51.488;0.152;2023-05-07T07:11:58;22.00;;;14.25;;
29730;SDS011;16639;51.488;0.152;2023-05-07T07:14:25;31.75;;;19.23;;
29730;SDS011;16639;51.488;0.152;2023-05-07T07:16:53;23.73;;;13.02;;
29730;SDS011;16639;51.488;0.152;2023-05-07T07:19:20;20.50;;;12.95;;
29730;SDS011;16639;51.488;0.152;2023-05-07T07:21:48;20.38;;;11.43;;
29730;SDS011;16639;51.488;0.152;2023-05-07T07:24:15;21.52;;;13.50;;
29730;SDS011;16639;51.488;0.152;2023-05-07T07:26:47;21.48;;;13.70;;
29730;SDS011;16639;51.488;0.152;2023-05-07T07:29:15;21.98;;;12.32;;
29730;SDS011;16639;51.488;0.152;2023-05-07T07:31:42;19.05;;;11.70;;
29730;SDS011;16639;51.488;0.152;2023-05-07T07:34:10;18.63;;;11.85;;
29730;SDS011;16639;51.488;0.152;2023-05-07T07:36:37;18.35;;;11.95;;
29730;SDS011;16639;51.488;0.152;2023-05-07T07:39:12;17.73;;;10.05;;
29730;SDS011;16639;51.488;0.152;2023-05-07T07:41:39;16.17;;;10.98;;
29730;SDS011;16639;51.488;0.152;2023-05-07T07:44:07;18.77;;;11.40;;
29730;SDS011;16639;51.488;0.152;2023-05-07T07:46:35;15.35;;;10.65;;
29730;SDS011;16639;51.488;0.152;2023-05-07T07:49:04;17.05;;;11.02;;
29730;SDS011;16639;51.488;0.152;2023-05-07T07:51:31;22.38;;;10.90;;
29730;SDS011;16639;51.488;0.152;2023-05-07T07:53:59;20.55;;;10.25;;
29730;SDS011;16639;51.488;0.152;2023-05-07T07:56:27;17.13;;;10.98;;
29730;SDS011;16639;51.488;0.152;2023-05-07T07:58:55;18.08;;;10.10;;
29730;SDS011;16639;51.488;0.152;2023-05-07T08:01:22;15.15;;;9.93;;
29730;SDS011;16639;51.488;0.152;2023-05-07T08:03:50;16.90;;;9.23;;
29730;SDS011;16639;51.488;0.152;2023-05-07T08:06:17;15.75;;;8.75;;
29730;SDS011;16639;51.488;0.152;2023-05-07T08:08:45;13.50;;;8.65;;
29730;SDS011;16639;51.488;0.152;2023-05-07T08:11:12;12.13;;;8.57;;
29730;SDS011;16639;51.488;0.152;2023-05-07T08:13:40;12.13;;;8.50;;
29730;SDS011;16639;51.488;0.152;2023-05-07T08:16:07;12.93;;;8.55;;
29730;SDS011;16639;51.488;0.152;2023-05-07T08:18:35;12.80;;;7.93;;
29730;SDS011;16639;51.488;0.152;2023-05-07T08:21:02;15.88;;;7.47;;
29730;SDS011;16639;51.488;0.152;2023-05-07T08:23:29;11.90;;;8.55;;
29730;SDS011;16639;51.488;0.152;2023-05-07T08:25:57;19.60;;;7.90;;
29730;SDS011;16639;51.488;0.152;2023-05-07T08:28:25;18.75;;;9.00;;
29730;SDS011;16639;51.488;0.152;2023-05-07T08:30:52;11.70;;;8.18;;
29730;SDS011;16639;51.488;0.152;2023-05-07T08:33:19;10.82;;;6.97;;
29730;SDS011;16639;51.488;0.152;2023-05-07T08:35:47;11.30;;;8.48;;
29730;SDS011;16639;51.488;0.152;2023-05-07T08:38:15;13.65;;;8.05;;
29730;SDS011;16639;51.488;0.152;2023-05-07T08:40:42;12.52;;;8.27;;
29730;SDS011;16639;51.488;0.152;2023-05-07T08:43:12;14.13;;;8.63;;
29730;SDS011;16639;51.488;0.152;2023-05-07T08:45:41;15.40;;;8.93;;
29730;SDS011;16639;51.488;0.152;2023-05-07T08:48:14;13.25;;;7.53;;
29730;SDS011;16639;51.488;0.152;2023-05-07T08:50:42;11.38;;;7.53;;
29730;SDS011;16639;51.488;0.152;2023-05-07T08:53:10;9.48;;;6.97;;
29730;SDS011;16639;51.488;0.152;2023-05-07T08:55:39;10.18;;;6.90;;
29730;SDS011;16639;51.488;0.152;2023-05-07T08:58:06;6.43;;;4.88;;
29730;SDS011;16639;51.488;0.152;2023-05-07T09:00:35;7.45;;;5.07;;
29730;SDS011;16639;51.488;0.152;2023-05-07T09:03:04;6.97;;;5.10;;
29730;SDS011;16639;51.488;0.152;2023-05-07T09:05:32;9.95;;;7.22;;
29730;SDS011;16639;51.488;0.152;2023-05-07T09:08:00;12.85;;;8.00;;
29730;SDS011;16639;51.488;0.152;2023-05-07T09:10:29;13.80;;;7.05;;
29730;SDS011;16639;51.488;0.152;2023-05-07T09:12:59;9.00;;;6.45;;
29730;SDS011;16639;51.488;0.152;2023-05-07T09:15:28;12.05;;;6.45;;
29730;SDS011;16639;51.488;0.152;2023-05-07T09:17:59;9.07;;;6.97;;
29730;SDS011;16639;51.488;0.152;2023-05-07T09:20:30;10.40;;;7.07;;
29730;SDS011;16639;51.488;0.152;2023-05-07T09:22:58;11.55;;;8.38;;
29730;SDS011;16639;51.488;0.152;2023-05-07T09:25:29;13.93;;;7.68;;
29730;SDS011;16639;51.488;0.152;2023-05-07T09:27:58;9.35;;;7.07;;
29730;SDS011;16639;51.488;0.152;2023-05-07T09:30:30;13.20;;;6.90;;
29730;SDS011;16639;51.488;0.152;2023-05-07T09:32:58;10.27;;;6.10;;
29730;SDS011;16639;51.488;0.152;2023-05-07T09:35:27;10.05;;;6.78;;
29730;SDS011;16639;51.488;0.152;2023-05-07T09:37:57;8.57;;;6.10;;
29730;SDS011;16639;51.488;0.152;2023-05-07T09:40:29;9.77;;;5.95;;
29730;SDS011;16639;51.488;0.152;2023-05-07T09:43:08;11.20;;;7.00;;
29730;SDS011;16639;51.488;0.152;2023-05-07T09:45:40;7.72;;;5.95;;
29730;SDS011;16639;51.488;0.152;2023-05-07T09:48:08;9.43;;;6.78;;
29730;SDS011;16639;51.488;0.152;2023-05-07T09:50:39;8.73;;;6.35;;
29730;SDS011;16639;51.488;0.152;2023-05-07T09:53:15;7.25;;;5.93;;
29730;SDS011;16639;51.488;0.152;2023-05-07T09:55:44;8.30;;;6.40;;
29730;SDS011;16639;51.488;0.152;2023-05-07T09:58:12;9.25;;;5.85;;
29730;SDS011;16639;51.488;0.152;2023-05-07T10:00:41;10.90;;;6.68;;
29730;SDS011;16639;51.488;0.152;2023-05-07T10:03:09;8.88;;;5.85;;
29730;SDS011;16639;51.488;0.152;2023-05-07T10:05:38;6.70;;;5.60;;
29730;SDS011;16639;51.488;0.152;2023-05-07T10:08:06;9.48;;;7.18;;
29730;SDS011;16639;51.488;0.152;2023-05-07T10:10:34;10.90;;;6.97;;
29730;SDS011;16639;51.488;0.152;2023-05-07T10:13:03;9.98;;;5.93;;
29730;SDS011;16639;51.488;0.152;2023-05-07T10:15:32;10.70;;;6.63;;
29730;SDS011;16639;51.488;0.152;2023-05-07T10:18:02;8.75;;;6.35;;
29730;SDS011;16639;51.488;0.152;2023-05-07T10:20:31;9.80;;;6.50;;
29730;SDS011;16639;51.488;0.152;2023-05-07T10:22:59;9.98;;;7.38;;
29730;SDS011;16639;51.488;0.152;2023-05-07T10:25:32;12.77;;;7.18;;
29730;SDS011;16639;51.488;0.152;2023-05-07T10:28:08;13.13;;;7.03;;
29730;SDS011;16639;51.488;0.152;2023-05-07T10:33:28;10.93;;;6.18;;
29730;SDS011;16639;51.488;0.152;2023-05-07T10:35:58;7.70;;;6.28;;
29730;SDS011;16639;51.488;0.152;2023-05-07T10:38:28;8.88;;;7.07;;
29730;SDS011;16639;51.488;0.152;2023-05-07T10:40:57;7.70;;;6.32;;
29730;SDS011;16639;51.488;0.152;2023-05-07T10:43:24;11.88;;;6.63;;
29730;SDS011;16639;51.488;0.152;2023-05-07T10:46:11;8.93;;;6.05;;
29730;SDS011;16639;51.488;0.152;2023-05-07T10:51:35;8.57;;;6.38;;
29730;SDS011;16639;51.488;0.152;2023-05-07T10:56:36;8.73;;;6.57;;
29730;SDS011;16639;51.488;0.152;2023-05-07T10:59:48;8.27;;;6.05;;
29730;SDS011;16639;51.488;0.152;2023-05-07T11:01:59;7.90;;;6.03;;
29730;SDS011;16639;51.488;0.152;2023-05-07T11:04:33;8.43;;;6.18;;
29730;SDS011;16639;51.488;0.152;2023-05-07T11:15:11;9.98;;;7.72;;
29730;SDS011;16639;51.488;0.152;2023-05-07T11:17:53;9.00;;;6.72;;
29730;SDS011;16639;51.488;0.152;2023-05-07T11:28:37;8.55;;;6.20;;
29730;SDS011;16639;51.488;0.152;2023-05-07T11:31:08;9.80;;;6.45;;
29730;SDS011;16639;51.488;0.152;2023-05-07T11:33:37;7.53;;;6.32;;
29730;SDS011;16639;51.488;0.152;2023-05-07T11:36:05;9.15;;;6.03;;
29730;SDS011;16639;51.488;0.152;2023-05-07T11:38:35;16.95;;;6.53;;
29730;SDS011;16639;51.488;0.152;2023-05-07T11:41:04;8.68;;;6.13;;
29730;SDS011;16639;51.488;0.152;2023-05-07T11:43:32;9.43;;;5.68;;
29730;SDS011;16639;51.488;0.152;2023-05-07T11:46:07;9.35;;;5.78;;
29730;SDS011;16639;51.488;0.152;2023-05-07T11:48:39;9.48;;;6.78;;
29730;SDS011;16639;51.488;0.152;2023-05-07T11:51:08;5.88;;;5.20;;
29730;SDS011;16639;51.488;0.152;2023-05-07T11:53:39;7.25;;;5.65;;
29730;SDS011;16639;51.488;0.152;2023-05-07T11:56:12;5.95;;;5.25;;
29730;SDS011;16639;51.488;0.152;2023-05-07T11:58:40;6.72;;;5.15;;
29730;SDS011;16639;51.488;0.152;2023-05-07T12:01:09;10.88;;;5.28;;
29730;SDS011;16639;51.488;0.152;2023-05-07T12:03:41;7.60;;;5.63;;
29730;SDS011;16639;51.488;0.152;2023-05-07T12:06:16;7.63;;;4.22;;
29730;SDS011;16639;51.488;0.152;2023-05-07T12:08:44;5.85;;;4.45;;
29730;SDS011;16639;51.488;0.152;2023-05-07T12:11:15;5.93;;;4.85;;
29730;SDS011;16639;51.488;0.152;2023-05-07T12:13:44;8.45;;;5.70;;
29730;SDS011;16639;51.488;0.152;2023-05-07T12:16:12;7.88;;;5.32;;
29730;SDS011;16639;51.488;0.152;2023-05-07T12:18:40;7.38;;;5.10;;
29730;SDS011;16639;51.488;0.152;2023-05-07T12:21:08;5.30;;;4.53;;
29730;SDS011;16639;51.488;0.152;2023-05-07T12:23:36;5.57;;;4.45;;
29730;SDS011;16639;51.488;0.152;2023-05-07T12:26:05;6.95;;;4.82;;
29730;SDS011;16639;51.488;0.152;2023-05-07T12:28:37;6.30;;;4.50;;
29730;SDS011;16639;51.488;0.152;2023-05-07T12:31:06;6.88;;;5.63;;
29730;SDS011;16639;51.488;0.152;2023-05-07T12:33:34;8.35;;;5.85;;
29730;SDS011;16639;51.488;0.152;2023-05-07T12:36:03;7.18;;;5.93;;
29730;SDS011;16639;51.488;0.152;2023-05-07T12:38:38;7.55;;;5.38;;
29730;SDS011;16639;51.488;0.152;2023-05-07T12:41:08;9.93;;;5.78;;
29730;SDS011;16639;51.488;0.152;2023-05-07T12:43:36;7.22;;;6.07;;
29730;SDS011;16639;51.488;0.152;2023-05-07T12:46:05;6.32;;;5.40;;
29730;SDS011;16639;51.488;0.152;2023-05-07T12:48:35;6.30;;;4.50;;
29730;SDS011;16639;51.488;0.152;2023-05-07T12:51:04;9.23;;;5.88;;
29730;SDS011;16639;51.488;0.152;2023-05-07T12:53:33;8.88;;;5.85;;
29730;SDS011;16639;51.488;0.152;2023-05-07T12:56:06;6.07;;;5.05;;
29730;SDS011;16639;51.488;0.152;2023-05-07T12:58:34;7.25;;;6.15;;
29730;SDS011;16639;51.488;0.152;2023-05-07T13:01:06;9.32;;;5.45;;
29730;SDS011;16639;51.488;0.152;2023-05-07T13:03:37;4.85;;;4.45;;
29730;SDS011;16639;51.488;0.152;2023-05-07T13:06:07;7.32;;;5.82;;
29730;SDS011;16639;51.488;0.152;2023-05-07T13:08:40;6.20;;;4.15;;
29730;SDS011;16639;51.488;0.152;2023-05-07T13:11:11;7.10;;;5.53;;
29730;SDS011;16639;51.488;0.152;2023-05-07T13:13:40;8.55;;;5.63;;
29730;SDS011;16639;51.488;0.152;2023-05-07T13:16:09;8.52;;;4.97;;
29730;SDS011;16639;51.488;0.152;2023-05-07T13:18:38;8.38;;;4.72;;
29730;SDS011;16639;51.488;0.152;2023-05-07T13:21:07;4.57;;;4.00;;
29730;SDS011;16639;51.488;0.152;2023-05-07T13:23:34;7.10;;;4.18;;
29730;SDS011;16639;51.488;0.152;2023-05-07T13:26:02;9.00;;;6.20;;
29730;SDS011;16639;51.488;0.152;2023-05-07T13:28:37;7.45;;;5.00;;
29730;SDS011;16639;51.488;0.152;2023-05-07T13:31:04;7.57;;;5.07;;
29730;SDS011;16639;51.488;0.152;2023-05-07T13:33:32;6.80;;;5.93;;
29730;SDS011;16639;51.488;0.152;2023-05-07T13:35:59;8.82;;;4.70;;
29730;SDS011;16639;51.488;0.152;2023-05-07T13:38:27;7.15;;;5.00;;
29730;SDS011;16639;51.488;0.152;2023-05-07T13:40:54;7.38;;;4.88;;
29730;SDS011;16639;51.488;0.152;2023-05-07T13:43:22;7.60;;;4.93;;
29730;SDS011;16639;51.488;0.152;2023-05-07T13:45:50;5.82;;;5.22;;
29730;SDS011;16639;51.488;0.152;2023-05-07T13:48:17;7.57;;;4.55;;
29730;SDS011;16639;51.488;0.152;2023-05-07T13:50:45;7.93;;;4.65;;
29730;SDS011;16639;51.488;0.152;2023-05-07T13:53:12;7.07;;;4.55;;
29730;SDS011;16639;51.488;0.152;2023-05-07T13:55:39;9.25;;;5.05;;
29730;SDS011;16639;51.488;0.152;2023-05-07T13:58:07;5.75;;;4.30;;
29730;SDS011;16639;51.488;0.152;2023-05-07T14:00:34;6.25;;;4.30;;
29730;SDS011;16639;51.488;0.152;2023-05-07T14:03:02;6.78;;;4.85;;
29730;SDS011;16639;51.488;0.152;2023-05-07T14:05:31;8.82;;;4.93;;
29730;SDS011;16639;51.488;0.152;2023-05-07T14:07:58;7.35;;;4.40;;
29730;SDS011;16639;51.488;0.152;2023-05-07T14:10:26;6.75;;;5.53;;
29730;SDS011;16639;51.488;0.152;2023-05-07T14:12:54;6.15;;;5.30;;
29730;SDS011;16639;51.488;0.152;2023-05-07T14:15:21;11.48;;;4.95;;
29730;SDS011;16639;51.488;0.152;2023-05-07T14:17:49;5.32;;;4.40;;
29730;SDS011;16639;51.488;0.152;2023-05-07T14:20:16;6.60;;;4.38;;
29730;SDS011;16639;51.488;0.152;2023-05-07T14:22:43;6.15;;;5.53;;
29730;SDS011;16639;51.488;0.152;2023-05-07T14:25:11;6.78;;;4.47;;
29730;SDS011;16639;51.488;0.152;2023-05-07T14:27:40;5.38;;;4.03;;
29730;SDS011;16639;51.488;0.152;2023-05-07T14:30:07;5.68;;;4.60;;
29730;SDS011;16639;51.488;0.152;2023-05-07T14:32:35;8.02;;;6.60;;
29730;SDS011;16639;51.488;0.152;2023-05-07T14:35:03;8.48;;;4.85;;
29730;SDS011;16639;51.488;0.152;2023-05-07T14:37:31;5.03;;;4.53;;
29730;SDS011;16639;51.488;0.152;2023-05-07T14:39:58;4.47;;;3.58;;
29730;SDS011;16639;51.488;0.152;2023-05-07T14:42:26;5.45;;;3.92;;
29730;SDS011;16639;51.488;0.152;2023-05-07T14:44:54;5.97;;;4.15;;
29730;SDS011;16639;51.488;0.152;2023-05-07T14:47:22;4.72;;;3.60;;
29730;SDS011;16639;51.488;0.152;2023-05-07T14:49:50;5.90;;;4.15;;
29730;SDS011;16639;51.488;0.152;2023-05-07T14:52:17;4.18;;;3.13;;
29730;SDS011;16639;51.488;0.152;2023-05-07T14:54:45;5.38;;;3.90;;
29730;SDS011;16639;51.488;0.152;2023-05-07T14:57:13;6.20;;;4.03;;
29730;SDS011;16639;51.488;0.152;2023-05-07T14:59:42;5.07;;;3.67;;
29730;SDS011;16639;51.488;0.152;2023-05-07T15:02:11;7.95;;;4.78;;
29730;SDS011;16639;51.488;0.152;2023-05-07T15:04:42;4.82;;;4.15;;
29730;SDS011;16639;51.488;0.152;2023-05-07T15:07:13;5.97;;;4.90;;